sensor_id;sensor_type;location;lat;lon;timestamp;P1;durP1;ratioP1;P2;durP2;ratioP2
18983;SDS011;9626;52.552;13.436;2023-12-20T00:02:21;4.47;;;4.07;;
18983;SDS011;9626;52.552;13.436;2023-12-20T00:04:47;4.20;;;3.80;;
18983;SDS011;9626;52.552;13.436;2023-12-20T00:07:13;4.50;;;4.10;;
18983;SDS011;9626;52.552;13.436;2023-12-20T00:09:39;3.80;;;3.47;;
18983;SDS011;9626;52.552;13.436;2023-12-20T00:12:05;3.70;;;3.40;;
18983;SDS011;9626;52.552;13.436;2023-12-20T00:14:31;4.40;;;4.00;;
18983;SDS011;9626;52.552;13.436;2023-12-20T00:16:57;4.20;;;3.80;;
18983;SDS011;9626;52.552;13.436;2023-12-20T00:19:23;4.23;;;3.83;;
18983;SDS011;9626;52.552;13.436;2023-12-20T00:21:49;4.67;;;3.80;;
18983;SDS011;9626;52.552;13.436;2023-12-20T00:24:15;4.47;;;4.07;;
18983;SDS011;9626;52.552;13.436;2023-12-20T00:26:42;4.70;;;4.30;;
18983;SDS011;9626;52.552;13.436;2023-12-20T00:29:08;4.43;;;4.03;;
18983;SDS011;9626;52.552;13.436;2023-12-20T00:31:34;3.67;;;3.37;;
18983;SDS011;9626;52.552;13.436;2023-12-20T00:34:00;3.83;;;3.53;;
18983;SDS011;9626;52.552;13.436;2023-12-20T00:36:26;3.67;;;3.37;;
18983;SDS011;9626;52.552;13.436;2023-12-20T00:38:52;4.10;;;3.70;;
18983;SDS011;9626;52.552;13.436;2023-12-20T00:41:18;4.17;;;3.77;;
18983;SDS011;9626;52.552;13.436;2023-12-20T00:43:44;4.30;;;3.90;;
18983;SDS011;9626;52.552;13.436;2023-12-20T00:46:10;4.43;;;4.03;;
18983;SDS011;9626;52.552;13.436;2023-12-20T00:48:36;4.00;;;3.70;;
18983;SDS011;9626;52.552;13.436;2023-12-20T00:51:03;4.90;;;3.37;;
18983;SDS011;9626;52.552;13.436;2023-12-20T00:53:29;4.30;;;3.87;;
18983;SDS011;9626;52.552;13.436;2023-12-20T00:55:55;4.03;;;3.63;;
18983;SDS011;9626;52.552;13.436;2023-12-20T00:58:21;4.00;;;3.60;;
18983;SDS011;9626;52.552;13.436;2023-12-20T01:00:47;3.90;;;3.50;;
18983;SDS011;9626;52.552;13.436;2023-12-20T01:03:13;4.40;;;4.00;;
18983;SDS011;9626;52.552;13.436;2023-12-20T01:05:40;5.07;;;4.57;;
18983;SDS011;9626;52.552;13.436;2023-12-20T01:08:06;4.90;;;4.47;;
18983;SDS011;9626;52.552;13.436;2023-12-20T01:10:32;5.10;;;4.67;;
18983;SDS011;9626;52.552;13.436;2023-12-20T01:12:58;6.60;;;4.47;;
18983;SDS011;9626;52.552;13.436;2023-12-20T01:15:24;4.70;;;4.30;;
18983;SDS011;9626;52.552;13.436;2023-12-20T01:17:51;4.93;;;4.30;;
18983;SDS011;9626;52.552;13.436;2023-12-20T01:20:17;4.60;;;4.20;;
18983;SDS011;9626;52.552;13.436;2023-12-20T01:22:43;5.20;;;4.70;;
18983;SDS011;9626;52.552;13.436;2023-12-20T01:25:11;4.63;;;4.23;;
18983;SDS011;9626;52.552;13.436;2023-12-20T01:27:38;4.43;;;4.03;;
18983;SDS011;9626;52.552;13.436;2023-12-20T01:30:04;4.40;;;4.00;;
18983;SDS011;9626;52.552;13.436;2023-12-20T01:32:30;4.30;;;3.90;;
18983;SDS011;9626;52.552;13.436;2023-12-20T01:34:56;4.50;;;4.10;;
18983;SDS011;9626;52.552;13.436;2023-12-20T01:37:22;4.97;;;4.23;;
18983;SDS011;9626;52.552;13.436;2023-12-20T01:39:50;4.77;;;4.37;;
18983;SDS011;9626;52.552;13.436;2023-12-20T01:42:17;4.17;;;3.77;;
18983;SDS011;9626;52.552;13.436;2023-12-20T01:44:44;4.33;;;3.80;;
18983;SDS011;9626;52.552;13.436;2023-12-20T01:47:10;4.17;;;3.77;;
18983;SDS011;9626;52.552;13.436;2023-12-20T01:49:36;4.40;;;4.00;;
18983;SDS011;9626;52.552;13.436;2023-12-20T01:52:02;4.03;;;3.73;;
18983;SDS011;9626;52.552;13.436;2023-12-20T01:54:29;3.80;;;3.50;;
18983;SDS011;9626;52.552;13.436;2023-12-20T01:56:56;3.67;;;3.37;;
18983;SDS011;9626;52.552;13.436;2023-12-20T01:59:22;3.33;;;3.03;;
18983;SDS011;9626;52.552;13.436;2023-12-20T02:01:48;3.27;;;2.97;;
18983;SDS011;9626;52.552;13.436;2023-12-20T02:04:14;3.40;;;3.10;;
18983;SDS011;9626;52.552;13.436;2023-12-20T02:06:41;3.60;;;2.63;;
18983;SDS011;9626;52.552;13.436;2023-12-20T02:09:09;3.00;;;2.57;;
18983;SDS011;9626;52.552;13.436;2023-12-20T02:11:35;2.37;;;2.17;;
18983;SDS011;9626;52.552;13.436;2023-12-20T02:14:01;3.70;;;2.30;;
18983;SDS011;9626;52.552;13.436;2023-12-20T02:16:27;2.63;;;2.43;;
18983;SDS011;9626;52.552;13.436;2023-12-20T02:18:53;3.30;;;2.13;;
18983;SDS011;9626;52.552;13.436;2023-12-20T02:21:24;4.37;;;2.20;;
18983;SDS011;9626;52.552;13.436;2023-12-20T02:23:50;2.80;;;2.33;;
18983;SDS011;9626;52.552;13.436;2023-12-20T02:26:16;3.33;;;2.40;;
18983;SDS011;9626;52.552;13.436;2023-12-20T02:28:44;4.10;;;1.90;;
18983;SDS011;9626;52.552;13.436;2023-12-20T02:31:10;2.13;;;1.90;;
18983;SDS011;9626;52.552;13.436;2023-12-20T02:33:36;2.37;;;1.87;;
18983;SDS011;9626;52.552;13.436;2023-12-20T02:36:02;3.10;;;1.63;;
18983;SDS011;9626;52.552;13.436;2023-12-20T02:38:28;3.03;;;2.00;;
18983;SDS011;9626;52.552;13.436;2023-12-20T02:40:54;3.00;;;1.60;;
18983;SDS011;9626;52.552;13.436;2023-12-20T02:43:20;1.70;;;1.60;;
18983;SDS011;9626;52.552;13.436;2023-12-20T02:45:46;4.70;;;1.60;;
18983;SDS011;9626;52.552;13.436;2023-12-20T02:48:12;3.20;;;1.70;;
18983;SDS011;9626;52.552;13.436;2023-12-20T02:50:38;2.07;;;1.63;;
18983;SDS011;9626;52.552;13.436;2023-12-20T02:53:04;1.73;;;1.63;;
18983;SDS011;9626;52.552;13.436;2023-12-20T02:55:30;1.83;;;1.70;;
18983;SDS011;9626;52.552;13.436;2023-12-20T02:57:56;2.60;;;1.93;;
18983;SDS011;9626;52.552;13.436;2023-12-20T03:00:22;3.10;;;2.10;;
18983;SDS011;9626;52.552;13.436;2023-12-20T03:02:48;2.50;;;2.07;;
18983;SDS011;9626;52.552;13.436;2023-12-20T03:05:14;3.33;;;2.37;;
18983;SDS011;9626;52.552;13.436;2023-12-20T03:07:40;2.63;;;2.43;;
18983;SDS011;9626;52.552;13.436;2023-12-20T03:10:06;2.87;;;2.23;;
18983;SDS011;9626;52.552;13.436;2023-12-20T03:12:33;5.03;;;2.40;;
18983;SDS011;9626;52.552;13.436;2023-12-20T03:14:59;2.63;;;2.07;;
18983;SDS011;9626;52.552;13.436;2023-12-20T03:17:25;3.67;;;1.90;;
18983;SDS011;9626;52.552;13.436;2023-12-20T03:19:51;3.93;;;2.00;;
18983;SDS011;9626;52.552;13.436;2023-12-20T03:22:17;4.27;;;1.80;;
18983;SDS011;9626;52.552;13.436;2023-12-20T03:24:43;5.13;;;2.13;;
18983;SDS011;9626;52.552;13.436;2023-12-20T03:27:09;1.90;;;1.67;;
18983;SDS011;9626;52.552;13.436;2023-12-20T03:29:35;3.40;;;1.83;;
18983;SDS011;9626;52.552;13.436;2023-12-20T03:32:03;4.43;;;1.97;;
18983;SDS011;9626;52.552;13.436;2023-12-20T03:34:29;4.23;;;1.70;;
18983;SDS011;9626;52.552;13.436;2023-12-20T03:36:55;5.00;;;1.43;;
18983;SDS011;9626;52.552;13.436;2023-12-20T03:39:22;6.37;;;1.60;;
18983;SDS011;9626;52.552;13.436;2023-12-20T03:41:48;7.57;;;1.80;;
18983;SDS011;9626;52.552;13.436;2023-12-20T03:44:14;6.57;;;1.60;;
18983;SDS011;9626;52.552;13.436;2023-12-20T03:46:40;6.63;;;1.87;;
18983;SDS011;9626;52.552;13.436;2023-12-20T03:49:06;8.93;;;2.13;;
18983;SDS011;9626;52.552;13.436;2023-12-20T03:51:32;3.90;;;1.73;;
18983;SDS011;9626;52.552;13.436;2023-12-20T03:53:58;6.80;;;1.80;;
18983;SDS011;9626;52.552;13.436;2023-12-20T03:56:24;5.50;;;1.70;;
18983;SDS011;9626;52.552;13.436;2023-12-20T03:58:50;10.07;;;2.03;;
18983;SDS011;9626;52.552;13.436;2023-12-20T04:01:16;7.27;;;1.80;;
18983;SDS011;9626;52.552;13.436;2023-12-20T04:03:42;6.83;;;2.00;;
18983;SDS011;9626;52.552;13.436;2023-12-20T04:06:08;6.77;;;2.07;;
18983;SDS011;9626;52.552;13.436;2023-12-20T04:08:35;6.03;;;1.87;;
18983;SDS011;9626;52.552;13.436;2023-12-20T04:11:01;9.37;;;1.80;;
18983;SDS011;9626;52.552;13.436;2023-12-20T04:13:27;6.37;;;1.67;;
18983;SDS011;9626;52.552;13.436;2023-12-20T04:15:53;3.80;;;1.57;;
18983;SDS011;9626;52.552;13.436;2023-12-20T04:18:19;8.63;;;1.47;;
18983;SDS011;9626;52.552;13.436;2023-12-20T04:20:45;7.93;;;1.83;;
18983;SDS011;9626;52.552;13.436;2023-12-20T04:23:11;6.57;;;1.67;;
18983;SDS011;9626;52.552;13.436;2023-12-20T04:25:37;8.07;;;1.90;;
18983;SDS011;9626;52.552;13.436;2023-12-20T04:28:03;7.47;;;1.70;;
18983;SDS011;9626;52.552;13.436;2023-12-20T04:30:29;6.87;;;1.63;;
18983;SDS011;9626;52.552;13.436;2023-12-20T04:32:55;5.13;;;1.90;;
18983;SDS011;9626;52.552;13.436;2023-12-20T04:35:22;4.73;;;1.70;;
18983;SDS011;9626;52.552;13.436;2023-12-20T04:37:48;6.93;;;1.80;;
18983;SDS011;9626;52.552;13.436;2023-12-20T04:40:15;4.87;;;1.60;;
18983;SDS011;9626;52.552;13.436;2023-12-20T04:42:41;11.07;;;2.93;;
18983;SDS011;9626;52.552;13.436;2023-12-20T04:45:07;4.57;;;1.40;;
18983;SDS011;9626;52.552;13.436;2023-12-20T04:47:33;6.93;;;1.50;;
18983;SDS011;9626;52.552;13.436;2023-12-20T04:49:59;6.80;;;1.73;;
18983;SDS011;9626;52.552;13.436;2023-12-20T04:52:25;6.70;;;1.87;;
18983;SDS011;9626;52.552;13.436;2023-12-20T04:54:51;5.97;;;1.60;;
18983;SDS011;9626;52.552;13.436;2023-12-20T04:57:17;7.40;;;2.10;;
18983;SDS011;9626;52.552;13.436;2023-12-20T04:59:43;8.80;;;2.60;;
18983;SDS011;9626;52.552;13.436;2023-12-20T05:02:09;6.37;;;2.10;;
18983;SDS011;9626;52.552;13.436;2023-12-20T05:04:35;10.13;;;2.30;;
18983;SDS011;9626;52.552;13.436;2023-12-20T05:07:01;4.00;;;2.00;;
18983;SDS011;9626;52.552;13.436;2023-12-20T05:09:27;6.87;;;2.10;;
18983;SDS011;9626;52.552;13.436;2023-12-20T05:11:53;9.57;;;2.20;;
18983;SDS011;9626;52.552;13.436;2023-12-20T05:14:19;6.20;;;2.03;;
18983;SDS011;9626;52.552;13.436;2023-12-20T05:16:45;9.43;;;2.10;;
18983;SDS011;9626;52.552;13.436;2023-12-20T05:19:11;13.07;;;2.23;;
18983;SDS011;9626;52.552;13.436;2023-12-20T05:21:37;8.67;;;1.87;;
18983;SDS011;9626;52.552;13.436;2023-12-20T05:24:03;9.43;;;1.93;;
18983;SDS011;9626;52.552;13.436;2023-12-20T05:26:30;7.50;;;2.10;;
18983;SDS011;9626;52.552;13.436;2023-12-20T05:28:56;9.20;;;2.00;;
18983;SDS011;9626;52.552;13.436;2023-12-20T05:31:22;10.10;;;1.77;;
18983;SDS011;9626;52.552;13.436;2023-12-20T05:33:48;9.77;;;2.20;;
18983;SDS011;9626;52.552;13.436;2023-12-20T05:36:14;7.47;;;1.97;;
18983;SDS011;9626;52.552;13.436;2023-12-20T05:38:40;10.17;;;2.33;;
18983;SDS011;9626;52.552;13.436;2023-12-20T05:41:06;9.93;;;2.00;;
18983;SDS011;9626;52.552;13.436;2023-12-20T05:43:32;10.93;;;2.20;;
18983;SDS011;9626;52.552;13.436;2023-12-20T05:45:58;8.00;;;2.03;;
18983;SDS011;9626;52.552;13.436;2023-12-20T05:48:24;12.40;;;2.57;;
18983;SDS011;9626;52.552;13.436;2023-12-20T05:50:50;13.93;;;2.33;;
18983;SDS011;9626;52.552;13.436;2023-12-20T05:53:16;10.93;;;2.50;;
18983;SDS011;9626;52.552;13.436;2023-12-20T05:55:42;12.80;;;2.70;;
18983;SDS011;9626;52.552;13.436;2023-12-20T05:58:08;10.53;;;1.97;;
18983;SDS011;9626;52.552;13.436;2023-12-20T06:00:34;7.43;;;1.43;;
18983;SDS011;9626;52.552;13.436;2023-12-20T06:03:00;5.57;;;1.47;;
18983;SDS011;9626;52.552;13.436;2023-12-20T06:05:26;6.70;;;1.80;;
18983;SDS011;9626;52.552;13.436;2023-12-20T06:07:52;8.13;;;2.23;;
18983;SDS011;9626;52.552;13.436;2023-12-20T06:10:20;6.87;;;1.50;;
18983;SDS011;9626;52.552;13.436;2023-12-20T06:12:47;7.10;;;1.40;;
18983;SDS011;9626;52.552;13.436;2023-12-20T06:15:15;10.87;;;2.17;;
18983;SDS011;9626;52.552;13.436;2023-12-20T06:17:41;8.57;;;1.57;;
18983;SDS011;9626;52.552;13.436;2023-12-20T06:20:07;8.27;;;1.70;;
18983;SDS011;9626;52.552;13.436;2023-12-20T06:22:34;8.37;;;1.97;;
18983;SDS011;9626;52.552;13.436;2023-12-20T06:25:02;12.20;;;1.97;;
18983;SDS011;9626;52.552;13.436;2023-12-20T06:27:28;8.63;;;1.47;;
18983;SDS011;9626;52.552;13.436;2023-12-20T06:29:54;9.43;;;2.00;;
18983;SDS011;9626;52.552;13.436;2023-12-20T06:32:20;7.83;;;1.40;;
18983;SDS011;9626;52.552;13.436;2023-12-20T06:34:48;7.63;;;1.73;;
18983;SDS011;9626;52.552;13.436;2023-12-20T06:37:14;5.13;;;1.37;;
18983;SDS011;9626;52.552;13.436;2023-12-20T06:39:40;16.17;;;2.77;;
18983;SDS011;9626;52.552;13.436;2023-12-20T06:42:06;9.10;;;2.00;;
18983;SDS011;9626;52.552;13.436;2023-12-20T06:44:33;9.37;;;1.97;;
18983;SDS011;9626;52.552;13.436;2023-12-20T06:47:00;8.90;;;1.53;;
18983;SDS011;9626;52.552;13.436;2023-12-20T06:49:26;5.63;;;1.50;;
18983;SDS011;9626;52.552;13.436;2023-12-20T06:51:52;5.80;;;1.67;;
18983;SDS011;9626;52.552;13.436;2023-12-20T06:54:18;13.17;;;2.40;;
18983;SDS011;9626;52.552;13.436;2023-12-20T06:56:44;12.63;;;1.63;;
18983;SDS011;9626;52.552;13.436;2023-12-20T06:59:10;11.50;;;1.70;;
18983;SDS011;9626;52.552;13.436;2023-12-20T07:01:36;13.60;;;1.70;;
18983;SDS011;9626;52.552;13.436;2023-12-20T07:04:03;10.03;;;1.57;;
18983;SDS011;9626;52.552;13.436;2023-12-20T07:06:29;7.63;;;1.70;;
18983;SDS011;9626;52.552;13.436;2023-12-20T07:08:55;6.80;;;1.47;;
18983;SDS011;9626;52.552;13.436;2023-12-20T07:11:21;8.60;;;1.70;;
18983;SDS011;9626;52.552;13.436;2023-12-20T07:13:47;13.27;;;2.27;;
18983;SDS011;9626;52.552;13.436;2023-12-20T07:16:13;9.30;;;2.20;;
18983;SDS011;9626;52.552;13.436;2023-12-20T07:18:39;8.97;;;1.90;;
18983;SDS011;9626;52.552;13.436;2023-12-20T07:21:05;8.63;;;2.23;;
18983;SDS011;9626;52.552;13.436;2023-12-20T07:23:34;7.20;;;2.13;;
18983;SDS011;9626;52.552;13.436;2023-12-20T07:26:00;8.37;;;1.60;;
18983;SDS011;9626;52.552;13.436;2023-12-20T07:28:26;6.60;;;2.23;;
18983;SDS011;9626;52.552;13.436;2023-12-20T07:30:52;11.90;;;2.37;;
18983;SDS011;9626;52.552;13.436;2023-12-20T07:33:18;9.03;;;2.43;;
18983;SDS011;9626;52.552;13.436;2023-12-20T07:35:44;7.17;;;2.07;;
18983;SDS011;9626;52.552;13.436;2023-12-20T07:38:11;5.57;;;1.60;;
18983;SDS011;9626;52.552;13.436;2023-12-20T07:40:37;5.37;;;1.80;;
18983;SDS011;9626;52.552;13.436;2023-12-20T07:43:04;8.30;;;2.00;;
18983;SDS011;9626;52.552;13.436;2023-12-20T07:45:30;10.97;;;2.03;;
18983;SDS011;9626;52.552;13.436;2023-12-20T07:47:56;7.10;;;1.77;;
18983;SDS011;9626;52.552;13.436;2023-12-20T07:50:22;4.20;;;1.27;;
18983;SDS011;9626;52.552;13.436;2023-12-20T07:52:48;6.90;;;2.10;;
18983;SDS011;9626;52.552;13.436;2023-12-20T07:55:14;11.83;;;2.20;;
18983;SDS011;9626;52.552;13.436;2023-12-20T07:57:40;2.10;;;1.20;;
18983;SDS011;9626;52.552;13.436;2023-12-20T08:00:07;9.17;;;2.00;;
18983;SDS011;9626;52.552;13.436;2023-12-20T08:02:33;9.53;;;2.10;;
18983;SDS011;9626;52.552;13.436;2023-12-20T08:04:59;6.07;;;1.60;;
18983;SDS011;9626;52.552;13.436;2023-12-20T08:07:25;10.37;;;2.00;;
18983;SDS011;9626;52.552;13.436;2023-12-20T08:09:51;7.97;;;1.57;;
18983;SDS011;9626;52.552;13.436;2023-12-20T08:12:17;8.17;;;1.90;;
18983;SDS011;9626;52.552;13.436;2023-12-20T08:14:43;3.07;;;1.57;;
18983;SDS011;9626;52.552;13.436;2023-12-20T08:17:12;8.40;;;1.63;;
18983;SDS011;9626;52.552;13.436;2023-12-20T08:19:38;6.40;;;1.90;;
18983;SDS011;9626;52.552;13.436;2023-12-20T08:22:04;11.57;;;2.00;;
18983;SDS011;9626;52.552;13.436;2023-12-20T08:24:30;12.40;;;1.90;;
18983;SDS011;9626;52.552;13.436;2023-12-20T08:26:56;8.43;;;2.50;;
18983;SDS011;9626;52.552;13.436;2023-12-20T08:29:22;10.20;;;2.20;;
18983;SDS011;9626;52.552;13.436;2023-12-20T08:31:51;9.33;;;1.80;;
18983;SDS011;9626;52.552;13.436;2023-12-20T08:34:19;8.30;;;2.23;;
18983;SDS011;9626;52.552;13.436;2023-12-20T08:36:45;7.50;;;1.87;;
18983;SDS011;9626;52.552;13.436;2023-12-20T08:39:14;7.50;;;2.03;;
18983;SDS011;9626;52.552;13.436;2023-12-20T08:41:40;14.37;;;2.23;;
18983;SDS011;9626;52.552;13.436;2023-12-20T08:44:06;9.67;;;2.13;;
18983;SDS011;9626;52.552;13.436;2023-12-20T08:46:32;3.30;;;0.93;;
18983;SDS011;9626;52.552;13.436;2023-12-20T08:48:58;9.97;;;1.67;;
18983;SDS011;9626;52.552;13.436;2023-12-20T08:51:24;4.60;;;1.67;;
18983;SDS011;9626;52.552;13.436;2023-12-20T08:53:51;11.13;;;2.80;;
18983;SDS011;9626;52.552;13.436;2023-12-20T08:56:17;7.73;;;1.40;;
18983;SDS011;9626;52.552;13.436;2023-12-20T08:58:44;9.97;;;2.37;;
18983;SDS011;9626;52.552;13.436;2023-12-20T09:01:14;9.63;;;1.90;;
18983;SDS011;9626;52.552;13.436;2023-12-20T09:03:40;11.67;;;1.73;;
18983;SDS011;9626;52.552;13.436;2023-12-20T09:06:06;8.43;;;1.90;;
18983;SDS011;9626;52.552;13.436;2023-12-20T09:08:32;3.67;;;1.13;;
18983;SDS011;9626;52.552;13.436;2023-12-20T09:10:59;6.43;;;1.83;;
18983;SDS011;9626;52.552;13.436;2023-12-20T09:13:26;5.83;;;1.63;;
18983;SDS011;9626;52.552;13.436;2023-12-20T09:15:57;12.10;;;1.93;;
18983;SDS011;9626;52.552;13.436;2023-12-20T09:18:24;5.73;;;1.60;;
18983;SDS011;9626;52.552;13.436;2023-12-20T09:20:50;8.50;;;1.83;;
18983;SDS011;9626;52.552;13.436;2023-12-20T09:23:16;7.47;;;1.57;;
18983;SDS011;9626;52.552;13.436;2023-12-20T09:25:43;14.47;;;2.00;;
18983;SDS011;9626;52.552;13.436;2023-12-20T09:28:10;11.97;;;1.77;;
18983;SDS011;9626;52.552;13.436;2023-12-20T09:30:36;9.30;;;2.17;;
18983;SDS011;9626;52.552;13.436;2023-12-20T09:33:05;12.63;;;2.37;;
18983;SDS011;9626;52.552;13.436;2023-12-20T09:35:32;9.10;;;1.87;;
18983;SDS011;9626;52.552;13.436;2023-12-20T09:37:58;12.37;;;1.90;;
18983;SDS011;9626;52.552;13.436;2023-12-20T09:40:26;12.17;;;1.90;;
18983;SDS011;9626;52.552;13.436;2023-12-20T09:45:29;7.70;;;1.70;;
18983;SDS011;9626;52.552;13.436;2023-12-20T09:47:57;12.87;;;2.13;;
18983;SDS011;9626;52.552;13.436;2023-12-20T09:50:23;8.43;;;1.93;;
18983;SDS011;9626;52.552;13.436;2023-12-20T09:53:08;6.93;;;1.77;;
18983;SDS011;9626;52.552;13.436;2023-12-20T09:55:36;9.63;;;2.30;;
18983;SDS011;9626;52.552;13.436;2023-12-20T09:58:02;10.83;;;2.10;;
18983;SDS011;9626;52.552;13.436;2023-12-20T10:00:28;11.07;;;3.40;;
18983;SDS011;9626;52.552;13.436;2023-12-20T10:05:27;10.53;;;2.07;;
18983;SDS011;9626;52.552;13.436;2023-12-20T10:07:54;11.93;;;2.67;;
18983;SDS011;9626;52.552;13.436;2023-12-20T10:10:23;15.07;;;2.43;;
18983;SDS011;9626;52.552;13.436;2023-12-20T10:15:28;7.57;;;1.90;;
18983;SDS011;9626;52.552;13.436;2023-12-20T10:17:54;11.23;;;2.03;;
18983;SDS011;9626;52.552;13.436;2023-12-20T10:20:20;8.23;;;2.20;;
18983;SDS011;9626;52.552;13.436;2023-12-20T10:22:46;5.30;;;1.80;;
18983;SDS011;9626;52.552;13.436;2023-12-20T10:25:13;10.40;;;1.80;;
18983;SDS011;9626;52.552;13.436;2023-12-20T10:27:39;9.13;;;1.77;;
18983;SDS011;9626;52.552;13.436;2023-12-20T10:30:05;8.13;;;1.53;;
18983;SDS011;9626;52.552;13.436;2023-12-20T10:32:31;9.37;;;2.00;;
18983;SDS011;9626;52.552;13.436;2023-12-20T10:34:58;4.53;;;1.00;;
18983;SDS011;9626;52.552;13.436;2023-12-20T10:37:25;7.13;;;1.93;;
18983;SDS011;9626;52.552;13.436;2023-12-20T10:39:52;8.53;;;1.70;;
18983;SDS011;9626;52.552;13.436;2023-12-20T10:42:22;5.07;;;1.40;;
18983;SDS011;9626;52.552;13.436;2023-12-20T10:44:49;17.37;;;2.37;;
18983;SDS011;9626;52.552;13.436;2023-12-20T10:47:16;8.90;;;2.33;;
18983;SDS011;9626;52.552;13.436;2023-12-20T10:49:42;7.17;;;2.10;;
18983;SDS011;9626;52.552;13.436;2023-12-20T10:52:09;6.20;;;2.43;;
18983;SDS011;9626;52.552;13.436;2023-12-20T10:54:37;8.10;;;1.67;;
18983;SDS011;9626;52.552;13.436;2023-12-20T10:57:05;9.77;;;1.77;;
18983;SDS011;9626;52.552;13.436;2023-12-20T10:59:33;8.40;;;2.27;;
18983;SDS011;9626;52.552;13.436;2023-12-20T11:02:02;10.03;;;2.23;;
18983;SDS011;9626;52.552;13.436;2023-12-20T11:13:30;9.90;;;1.97;;
18983;SDS011;9626;52.552;13.436;2023-12-20T11:16:03;7.10;;;1.93;;
18983;SDS011;9626;52.552;13.436;2023-12-20T11:18:30;9.27;;;2.17;;
18983;SDS011;9626;52.552;13.436;2023-12-20T11:21:00;14.47;;;2.20;;
18983;SDS011;9626;52.552;13.436;2023-12-20T11:23:32;11.10;;;2.40;;
18983;SDS011;9626;52.552;13.436;2023-12-20T11:26:01;12.33;;;2.83;;
18983;SDS011;9626;52.552;13.436;2023-12-20T11:28:28;6.50;;;1.93;;
18983;SDS011;9626;52.552;13.436;2023-12-20T11:30:56;10.63;;;2.43;;
18983;SDS011;9626;52.552;13.436;2023-12-20T11:33:26;9.33;;;2.33;;
18983;SDS011;9626;52.552;13.436;2023-12-20T11:35:58;11.73;;;2.40;;
18983;SDS011;9626;52.552;13.436;2023-12-20T11:38:25;9.00;;;2.53;;
18983;SDS011;9626;52.552;13.436;2023-12-20T11:40:53;11.80;;;3.03;;
18983;SDS011;9626;52.552;13.436;2023-12-20T11:43:34;16.20;;;2.83;;
18983;SDS011;9626;52.552;13.436;2023-12-20T11:46:03;13.70;;;3.17;;
18983;SDS011;9626;52.552;13.436;2023-12-20T11:48:31;3.97;;;1.40;;
18983;SDS011;9626;52.552;13.436;2023-12-20T11:50:58;9.20;;;2.13;;
18983;SDS011;9626;52.552;13.436;2023-12-20T11:53:25;8.57;;;2.00;;
18983;SDS011;9626;52.552;13.436;2023-12-20T11:55:51;8.27;;;2.57;;
18983;SDS011;9626;52.552;13.436;2023-12-20T11:58:17;10.67;;;3.13;;
18983;SDS011;9626;52.552;13.436;2023-12-20T12:00:43;8.03;;;1.70;;
18983;SDS011;9626;52.552;13.436;2023-12-20T12:03:09;9.67;;;1.93;;
18983;SDS011;9626;52.552;13.436;2023-12-20T12:05:35;14.00;;;2.30;;
18983;SDS011;9626;52.552;13.436;2023-12-20T12:08:04;13.53;;;3.83;;
18983;SDS011;9626;52.552;13.436;2023-12-20T12:10:31;2.30;;;0.57;;
18983;SDS011;9626;52.552;13.436;2023-12-20T12:12:57;11.70;;;2.40;;
18983;SDS011;9626;52.552;13.436;2023-12-20T12:15:23;12.60;;;2.83;;
18983;SDS011;9626;52.552;13.436;2023-12-20T12:17:52;9.50;;;2.10;;
18983;SDS011;9626;52.552;13.436;2023-12-20T12:20:20;12.90;;;2.20;;
18983;SDS011;9626;52.552;13.436;2023-12-20T12:22:46;9.80;;;2.50;;
18983;SDS011;9626;52.552;13.436;2023-12-20T12:25:22;6.30;;;1.80;;
18983;SDS011;9626;52.552;13.436;2023-12-20T12:27:48;10.07;;;2.10;;
18983;SDS011;9626;52.552;13.436;2023-12-20T12:30:16;8.73;;;2.33;;
18983;SDS011;9626;52.552;13.436;2023-12-20T12:32:44;12.60;;;2.90;;
18983;SDS011;9626;52.552;13.436;2023-12-20T12:35:10;7.17;;;2.17;;
18983;SDS011;9626;52.552;13.436;2023-12-20T12:37:39;7.50;;;2.10;;
18983;SDS011;9626;52.552;13.436;2023-12-20T12:40:07;8.40;;;2.50;;
18983;SDS011;9626;52.552;13.436;2023-12-20T12:42:37;7.80;;;1.90;;
18983;SDS011;9626;52.552;13.436;2023-12-20T12:45:03;9.17;;;2.37;;
18983;SDS011;9626;52.552;13.436;2023-12-20T12:47:30;8.17;;;1.93;;
18983;SDS011;9626;52.552;13.436;2023-12-20T12:49:56;10.77;;;4.43;;
18983;SDS011;9626;52.552;13.436;2023-12-20T12:52:22;5.47;;;1.93;;
18983;SDS011;9626;52.552;13.436;2023-12-20T12:54:48;13.37;;;2.10;;
18983;SDS011;9626;52.552;13.436;2023-12-20T12:57:15;11.57;;;2.00;;
18983;SDS011;9626;52.552;13.436;2023-12-20T12:59:42;4.90;;;1.63;;
18983;SDS011;9626;52.552;13.436;2023-12-20T13:02:08;3.77;;;1.37;;
18983;SDS011;9626;52.552;13.436;2023-12-20T13:04:34;9.50;;;2.80;;
18983;SDS011;9626;52.552;13.436;2023-12-20T13:07:00;4.27;;;2.03;;
18983;SDS011;9626;52.552;13.436;2023-12-20T13:09:26;7.70;;;2.50;;
18983;SDS011;9626;52.552;13.436;2023-12-20T13:11:52;6.90;;;2.70;;
18983;SDS011;9626;52.552;13.436;2023-12-20T13:14:18;9.67;;;2.27;;
18983;SDS011;9626;52.552;13.436;2023-12-20T13:16:44;10.83;;;2.60;;
18983;SDS011;9626;52.552;13.436;2023-12-20T13:19:11;7.40;;;2.57;;
18983;SDS011;9626;52.552;13.436;2023-12-20T13:21:37;6.97;;;2.70;;
18983;SDS011;9626;52.552;13.436;2023-12-20T13:24:03;9.57;;;2.67;;
18983;SDS011;9626;52.552;13.436;2023-12-20T13:26:29;6.23;;;2.20;;
18983;SDS011;9626;52.552;13.436;2023-12-20T13:28:55;6.07;;;1.87;;
18983;SDS011;9626;52.552;13.436;2023-12-20T13:31:21;3.67;;;1.40;;
18983;SDS011;9626;52.552;13.436;2023-12-20T13:33:47;5.47;;;0.90;;
18983;SDS011;9626;52.552;13.436;2023-12-20T13:36:13;1.43;;;0.60;;
18983;SDS011;9626;52.552;13.436;2023-12-20T13:38:39;2.93;;;0.90;;
18983;SDS011;9626;52.552;13.436;2023-12-20T13:41:05;2.10;;;0.90;;
18983;SDS011;9626;52.552;13.436;2023-12-20T13:43:31;2.80;;;0.90;;
18983;SDS011;9626;52.552;13.436;2023-12-20T13:46:01;3.93;;;1.10;;
18983;SDS011;9626;52.552;13.436;2023-12-20T13:48:27;5.03;;;0.97;;
18983;SDS011;9626;52.552;13.436;2023-12-20T13:50:53;2.17;;;0.77;;
18983;SDS011;9626;52.552;13.436;2023-12-20T13:53:20;1.20;;;0.90;;
18983;SDS011;9626;52.552;13.436;2023-12-20T13:55:46;3.33;;;0.90;;
18983;SDS011;9626;52.552;13.436;2023-12-20T13:58:12;1.40;;;0.63;;
18983;SDS011;9626;52.552;13.436;2023-12-20T14:00:41;2.77;;;1.00;;
18983;SDS011;9626;52.552;13.436;2023-12-20T14:03:07;1.87;;;1.00;;
18983;SDS011;9626;52.552;13.436;2023-12-20T14:05:53;2.47;;;1.10;;
18983;SDS011;9626;52.552;13.436;2023-12-20T14:08:20;3.07;;;0.90;;
18983;SDS011;9626;52.552;13.436;2023-12-20T14:10:46;1.77;;;0.87;;
18983;SDS011;9626;52.552;13.436;2023-12-20T14:13:12;5.00;;;1.20;;
18983;SDS011;9626;52.552;13.436;2023-12-20T14:15:37;2.73;;;0.90;;
18983;SDS011;9626;52.552;13.436;2023-12-20T14:18:04;2.33;;;1.00;;
18983;SDS011;9626;52.552;13.436;2023-12-20T14:20:34;3.23;;;0.93;;
18983;SDS011;9626;52.552;13.436;2023-12-20T14:23:01;3.10;;;1.47;;
18983;SDS011;9626;52.552;13.436;2023-12-20T14:25:28;3.77;;;1.30;;
18983;SDS011;9626;52.552;13.436;2023-12-20T14:27:54;2.67;;;1.23;;
18983;SDS011;9626;52.552;13.436;2023-12-20T14:30:20;3.40;;;0.90;;
18983;SDS011;9626;52.552;13.436;2023-12-20T14:32:46;3.00;;;0.90;;
18983;SDS011;9626;52.552;13.436;2023-12-20T14:35:13;1.87;;;0.60;;
18983;SDS011;9626;52.552;13.436;2023-12-20T14:37:40;4.93;;;0.97;;
18983;SDS011;9626;52.552;13.436;2023-12-20T14:40:06;3.37;;;0.90;;
18983;SDS011;9626;52.552;13.436;2023-12-20T14:42:36;1.63;;;0.97;;
18983;SDS011;9626;52.552;13.436;2023-12-20T14:45:03;2.73;;;1.17;;
18983;SDS011;9626;52.552;13.436;2023-12-20T14:47:29;2.77;;;0.77;;
18983;SDS011;9626;52.552;13.436;2023-12-20T14:49:55;2.70;;;0.90;;
18983;SDS011;9626;52.552;13.436;2023-12-20T14:52:21;2.70;;;1.00;;
18983;SDS011;9626;52.552;13.436;2023-12-20T14:54:48;3.80;;;1.20;;
18983;SDS011;9626;52.552;13.436;2023-12-20T14:57:14;2.97;;;1.07;;
18983;SDS011;9626;52.552;13.436;2023-12-20T14:59:41;2.77;;;0.80;;